createdAt,value
2023-01-29T00:02:25.638Z,2.80
2023-01-29T00:04:58.705Z,2.80
2023-01-29T00:07:27.401Z,2.90
2023-01-29T00:09:55.539Z,3.00
2023-01-29T00:12:25.034Z,3.00
2023-01-29T00:14:53.208Z,3.00
2023-01-29T00:17:21.389Z,3.00
2023-01-29T00:19:49.512Z,3.00
2023-01-29T00:22:17.651Z,3.00
2023-01-29T00:24:45.837Z,3.00
2023-01-29T00:27:13.969Z,3.00
2023-01-29T00:30:02.435Z,3.00
2023-01-29T00:32:30.540Z,3.00
2023-01-29T00:35:00.121Z,3.00
2023-01-29T00:37:28.307Z,3.00
2023-01-29T00:39:56.697Z,2.90
2023-01-29T00:42:42.103Z,2.90
2023-01-29T00:45:13.993Z,2.90
2023-01-29T00:47:42.069Z,2.90
2023-01-29T00:50:12.337Z,2.80
2023-01-29T00:52:41.867Z,2.80
2023-01-29T00:55:11.886Z,2.80
2023-01-29T00:57:40.486Z,2.80
2023-01-29T01:00:15.844Z,2.80
2023-01-29T01:03:02.282Z,2.80
2023-01-29T01:05:30.500Z,2.90
2023-01-29T01:08:00.202Z,2.90
2023-01-29T01:10:29.117Z,2.90
2023-01-29T01:12:59.022Z,2.90
2023-01-29T01:15:30.812Z,2.90
2023-01-29T01:18:00.860Z,2.90
2023-01-29T01:20:31.232Z,2.90
2023-01-29T01:22:59.383Z,3.00
2023-01-29T01:25:28.893Z,2.90
2023-01-29T01:30:29.485Z,2.90
2023-01-29T01:32:57.731Z,2.90
2023-01-29T01:35:25.903Z,3.00
2023-01-29T01:37:54.129Z,3.00
2023-01-29T01:40:23.354Z,3.00
2023-01-29T01:42:53.984Z,3.00
2023-01-29T01:45:29.082Z,3.00
2023-01-29T01:48:03.379Z,3.00
2023-01-29T01:50:35.823Z,3.00
2023-01-29T01:53:08.957Z,3.00
2023-01-29T01:55:42.103Z,3.00
2023-01-29T01:58:13.542Z,3.00
2023-01-29T02:00:41.780Z,3.10
2023-01-29T02:03:31.047Z,3.10
2023-01-29T02:06:18.367Z,3.10
2023-01-29T02:09:11.751Z,3.10
2023-01-29T02:11:40.072Z,3.10
2023-01-29T02:14:08.677Z,3.10
2023-01-29T02:16:37.462Z,3.10
2023-01-29T02:19:16.518Z,3.20
2023-01-29T02:22:06.972Z,3.20
2023-01-29T02:25:10.058Z,3.20
2023-01-29T02:28:14.086Z,3.30
2023-01-29T02:30:46.883Z,3.20
2023-01-29T02:33:24.256Z,3.20
2023-01-29T02:36:00.251Z,3.20
2023-01-29T02:38:37.386Z,3.10
2023-01-29T02:41:12.192Z,3.10
2023-01-29T02:43:47.503Z,3.20
2023-01-29T02:46:24.842Z,3.20
2023-01-29T02:49:00.403Z,3.20
2023-01-29T02:51:35.281Z,3.20
2023-01-29T02:54:08.582Z,3.20
2023-01-29T02:56:41.260Z,3.20
2023-01-29T02:59:15.611Z,3.20
2023-01-29T03:01:50.437Z,3.30
2023-01-29T03:04:22.242Z,3.30
2023-01-29T03:06:54.424Z,3.30
2023-01-29T03:09:29.252Z,3.30
2023-01-29T03:12:19.893Z,3.20
2023-01-29T03:15:10.062Z,3.20
2023-01-29T03:17:45.946Z,3.20
2023-01-29T03:20:18.402Z,3.30
2023-01-29T03:22:53.395Z,3.30
2023-01-29T03:25:41.418Z,3.30
2023-01-29T03:28:30.726Z,3.30
2023-01-29T03:31:21.315Z,3.30
2023-01-29T03:34:04.943Z,3.30
2023-01-29T03:36:39.845Z,3.30
2023-01-29T03:39:09.639Z,3.20
2023-01-29T03:41:43.161Z,3.30
2023-01-29T03:44:17.071Z,3.30
2023-01-29T03:46:53.659Z,3.30
2023-01-29T03:49:33.459Z,3.20
2023-01-29T03:52:15.322Z,3.20
2023-01-29T03:54:55.119Z,3.20
2023-01-29T03:57:32.507Z,3.10
2023-01-29T04:00:08.188Z,3.10
2023-01-29T04:02:59.810Z,3.10
2023-01-29T04:05:35.203Z,3.00
2023-01-29T04:08:16.277Z,3.10
2023-01-29T04:10:48.521Z,3.00
2023-01-29T04:13:18.923Z,3.00
2023-01-29T04:15:54.305Z,3.00
2023-01-29T04:18:33.512Z,3.00
2023-01-29T04:21:23.391Z,2.90
2023-01-29T04:23:51.536Z,2.90
2023-01-29T04:26:49.789Z,3.00
2023-01-29T04:29:39.111Z,3.00
2023-01-29T04:32:16.142Z,3.00
2023-01-29T04:34:59.802Z,2.90
2023-01-29T04:37:36.639Z,2.90
2023-01-29T04:40:16.479Z,3.00
2023-01-29T04:42:51.140Z,3.00
2023-01-29T04:45:26.441Z,3.00
2023-01-29T04:48:02.372Z,3.10
2023-01-29T04:50:38.303Z,3.10
2023-01-29T04:53:14.112Z,3.10
2023-01-29T04:55:48.111Z,3.10
2023-01-29T04:58:23.744Z,3.20
2023-01-29T05:00:55.325Z,3.20
2023-01-29T05:03:26.953Z,3.20
2023-01-29T05:05:57.090Z,3.20
2023-01-29T05:08:28.356Z,3.20
2023-01-29T05:11:00.150Z,3.10
2023-01-29T05:13:31.790Z,3.20
2023-01-29T05:16:06.416Z,3.20
2023-01-29T05:18:35.417Z,3.20
2023-01-29T05:21:06.332Z,3.20
2023-01-29T05:23:36.055Z,3.30
2023-01-29T05:26:05.065Z,3.30
2023-01-29T05:28:32.224Z,3.30
2023-01-29T05:31:00.427Z,3.30
2023-01-29T05:33:30.203Z,3.30
2023-01-29T05:36:00.819Z,3.30
2023-01-29T05:38:29.042Z,3.30
2023-01-29T05:41:00.088Z,3.40
2023-01-29T05:43:28.271Z,3.40
2023-01-29T05:45:57.927Z,3.40
2023-01-29T05:48:27.617Z,3.40
2023-01-29T05:50:56.297Z,3.40
2023-01-29T05:53:24.392Z,3.40
2023-01-29T05:55:52.517Z,3.40
2023-01-29T05:58:22.064Z,3.40
2023-01-29T06:00:50.454Z,3.40
2023-01-29T06:03:18.877Z,3.40
2023-01-29T06:05:47.071Z,3.40
2023-01-29T06:08:15.484Z,3.30
2023-01-29T06:10:43.614Z,3.40
2023-01-29T06:13:11.714Z,3.30
2023-01-29T06:15:42.154Z,3.30
2023-01-29T06:18:10.333Z,3.40
2023-01-29T06:20:38.685Z,3.40
2023-01-29T06:23:06.887Z,3.50
2023-01-29T06:25:35.218Z,3.50
2023-01-29T06:28:03.355Z,3.60
2023-01-29T06:30:31.863Z,3.50
2023-01-29T06:33:01.672Z,3.50
2023-01-29T06:35:29.961Z,3.50
2023-01-29T06:37:58.356Z,3.50
2023-01-29T06:40:26.485Z,3.50
2023-01-29T06:42:54.624Z,3.50
2023-01-29T06:45:22.754Z,3.50
2023-01-29T06:47:50.921Z,3.50
2023-01-29T06:50:21.070Z,3.40
2023-01-29T06:52:49.254Z,3.40
2023-01-29T06:55:17.506Z,3.50
2023-01-29T06:57:45.717Z,3.40
2023-01-29T07:00:15.587Z,3.40
2023-01-29T07:02:44.106Z,3.40
2023-01-29T07:05:12.357Z,3.40
2023-01-29T07:07:41.900Z,3.40
2023-01-29T07:10:11.204Z,3.30
2023-01-29T07:12:41.141Z,3.30
2023-01-29T07:15:12.565Z,3.40
2023-01-29T07:17:40.991Z,3.40
2023-01-29T07:20:10.595Z,3.30
2023-01-29T07:22:38.713Z,3.40
2023-01-29T07:25:10.121Z,3.40
2023-01-29T07:27:38.245Z,3.40
2023-01-29T07:30:07.509Z,3.40
2023-01-29T07:32:35.625Z,3.40
2023-01-29T07:35:03.738Z,3.40
2023-01-29T07:37:31.812Z,3.50
2023-01-29T07:39:59.876Z,3.50
2023-01-29T07:42:29.311Z,3.50
2023-01-29T07:44:57.443Z,3.50
2023-01-29T07:47:25.566Z,3.50
2023-01-29T07:49:53.660Z,3.50
2023-01-29T07:52:22.473Z,3.60
2023-01-29T07:54:50.672Z,3.60
2023-01-29T07:57:18.816Z,3.60
2023-01-29T07:59:48.396Z,3.60
2023-01-29T08:02:16.586Z,3.70
2023-01-29T08:04:44.848Z,3.70
2023-01-29T08:07:13.255Z,3.80
2023-01-29T08:09:41.346Z,3.80
2023-01-29T08:12:09.412Z,3.70
2023-01-29T08:14:37.535Z,3.70
2023-01-29T08:17:06.992Z,3.70
2023-01-29T08:19:35.070Z,3.70
2023-01-29T08:22:03.218Z,3.70
2023-01-29T08:24:41.684Z,3.70
2023-01-29T08:27:19.532Z,3.80
2023-01-29T08:29:47.650Z,3.80
2023-01-29T08:32:17.105Z,3.90
2023-01-29T08:34:45.230Z,3.90
2023-01-29T08:37:13.297Z,3.90
2023-01-29T08:42:10.474Z,4.00
2023-01-29T08:44:38.551Z,4.10
2023-01-29T08:47:06.747Z,4.10
2023-01-29T08:49:36.432Z,4.10
2023-01-29T08:52:04.884Z,4.10
2023-01-29T08:54:32.984Z,4.10
2023-01-29T08:57:01.103Z,4.00
2023-01-29T08:59:29.160Z,4.00
2023-01-29T09:01:57.309Z,4.00
2023-01-29T09:04:25.585Z,4.00
2023-01-29T09:06:55.121Z,4.10
2023-01-29T09:09:23.180Z,4.20
2023-01-29T09:11:51.260Z,4.20
2023-01-29T09:14:20.747Z,4.30
2023-01-29T09:16:48.910Z,4.30
2023-01-29T09:19:17.046Z,4.40
2023-01-29T09:21:45.119Z,4.40
2023-01-29T09:24:14.591Z,4.50
2023-01-29T09:26:42.728Z,4.60
2023-01-29T09:29:11.629Z,4.60
2023-01-29T09:31:39.938Z,4.60
2023-01-29T09:34:08.159Z,4.60
2023-01-29T09:36:36.284Z,4.60
2023-01-29T09:39:04.489Z,4.70
2023-01-29T09:41:45.274Z,4.80
2023-01-29T09:44:21.970Z,4.90
2023-01-29T09:46:54.834Z,4.90
2023-01-29T09:49:27.444Z,5.00
2023-01-29T09:52:02.000Z,5.00
2023-01-29T09:54:34.119Z,5.10
2023-01-29T09:57:03.673Z,5.10
2023-01-29T09:59:33.021Z,5.20
2023-01-29T10:02:10.410Z,5.20
2023-01-29T10:05:08.810Z,5.20
2023-01-29T10:08:08.245Z,5.30
2023-01-29T10:10:47.492Z,5.30
2023-01-29T10:13:26.611Z,5.30
2023-01-29T10:16:19.639Z,5.30
2023-01-29T10:19:07.496Z,5.40
2023-01-29T10:22:05.784Z,5.60
2023-01-29T10:24:39.337Z,5.70
2023-01-29T10:27:15.818Z,5.90
2023-01-29T10:29:47.132Z,6.00
2023-01-29T10:32:18.660Z,6.30
2023-01-29T10:34:50.883Z,6.40
2023-01-29T10:37:24.086Z,6.50
2023-01-29T10:39:52.578Z,6.60
2023-01-29T10:42:29.819Z,6.70
2023-01-29T10:45:14.936Z,6.80
2023-01-29T10:48:04.285Z,6.70
2023-01-29T10:50:44.295Z,6.70
2023-01-29T10:53:44.256Z,6.70
2023-01-29T10:56:29.880Z,6.70
2023-01-29T10:59:02.845Z,6.80
2023-01-29T11:01:32.676Z,6.90
2023-01-29T11:04:03.101Z,6.90
2023-01-29T11:06:32.689Z,7.00
2023-01-29T11:09:08.010Z,7.00
2023-01-29T11:11:42.400Z,7.10
2023-01-29T11:14:15.044Z,7.00
2023-01-29T11:16:46.785Z,7.00
2023-01-29T11:19:15.760Z,7.00
2023-01-29T11:21:54.407Z,7.00
2023-01-29T11:24:22.585Z,7.00
2023-01-29T11:26:53.013Z,7.10
2023-01-29T11:29:38.553Z,7.10
2023-01-29T11:32:12.914Z,7.10
2023-01-29T11:35:00.160Z,7.20
2023-01-29T11:37:35.556Z,7.30
2023-01-29T11:40:28.792Z,7.30
2023-01-29T11:42:56.982Z,7.40
2023-01-29T11:45:32.194Z,7.40
2023-01-29T11:48:02.189Z,7.40
2023-01-29T11:50:34.482Z,7.40
2023-01-29T11:53:06.809Z,7.40
2023-01-29T11:55:49.757Z,7.30
2023-01-29T11:58:22.440Z,7.40
2023-01-29T12:00:52.454Z,7.40
2023-01-29T12:03:26.114Z,7.40
2023-01-29T12:05:57.375Z,7.30
2023-01-29T12:08:25.985Z,7.30
2023-01-29T12:11:09.170Z,7.30
2023-01-29T12:13:38.960Z,7.30
2023-01-29T12:16:24.723Z,7.30
2023-01-29T12:18:57.652Z,7.40
2023-01-29T12:21:34.958Z,7.40
2023-01-29T12:24:08.052Z,7.50
2023-01-29T12:26:41.549Z,7.50
2023-01-29T12:29:23.138Z,7.40
2023-01-29T12:31:59.572Z,7.40
2023-01-29T12:34:39.211Z,7.30
2023-01-29T12:37:16.770Z,7.20
2023-01-29T12:39:45.135Z,7.10
2023-01-29T12:42:18.979Z,7.10
2023-01-29T12:44:52.655Z,7.10
2023-01-29T12:47:25.373Z,7.20
2023-01-29T12:49:58.385Z,7.00
2023-01-29T12:52:40.802Z,7.00
2023-01-29T12:55:17.523Z,6.90
2023-01-29T12:57:51.769Z,6.90
2023-01-29T13:00:23.445Z,6.90
2023-01-29T13:02:56.514Z,6.90
2023-01-29T13:05:30.372Z,7.10
2023-01-29T13:08:03.393Z,7.10
2023-01-29T13:10:37.281Z,7.20
2023-01-29T13:13:12.228Z,7.30
2023-01-29T13:15:43.942Z,7.20
2023-01-29T13:18:42.048Z,7.10
2023-01-29T13:21:17.426Z,7.00
2023-01-29T13:23:48.185Z,7.00
2023-01-29T13:26:19.891Z,6.90
2023-01-29T13:28:49.202Z,6.80
2023-01-29T13:31:29.069Z,6.70
2023-01-29T13:34:05.024Z,6.60
2023-01-29T13:36:35.413Z,6.60
2023-01-29T13:39:06.832Z,6.50
2023-01-29T13:41:37.850Z,6.40
2023-01-29T13:44:09.203Z,6.20
2023-01-29T13:46:42.557Z,6.00
2023-01-29T13:49:35.141Z,6.10
2023-01-29T13:52:22.395Z,6.20
2023-01-29T13:54:57.275Z,6.30
2023-01-29T13:57:37.936Z,6.30
2023-01-29T14:00:07.038Z,6.30
2023-01-29T14:02:35.237Z,6.40
2023-01-29T14:05:40.772Z,6.40
2023-01-29T14:08:42.651Z,6.40
2023-01-29T14:11:36.987Z,6.30
2023-01-29T14:14:43.182Z,6.20
2023-01-29T14:17:11.265Z,6.20
2023-01-29T14:19:39.572Z,6.20
2023-01-29T14:22:07.763Z,6.20
2023-01-29T14:24:37.385Z,6.20
2023-01-29T14:27:06.555Z,6.20
2023-01-29T14:29:42.326Z,6.10
2023-01-29T14:32:15.570Z,6.00
2023-01-29T14:34:47.559Z,6.00
2023-01-29T14:37:23.395Z,5.90
2023-01-29T14:39:55.802Z,5.90
2023-01-29T14:42:26.894Z,5.80
2023-01-29T14:45:22.423Z,5.80
2023-01-29T14:48:19.109Z,5.80
2023-01-29T14:50:57.502Z,5.90
2023-01-29T14:53:32.459Z,5.90
2023-01-29T14:56:05.181Z,5.80
2023-01-29T14:58:39.275Z,5.70
2023-01-29T15:01:17.174Z,5.60
2023-01-29T15:03:48.884Z,5.60
2023-01-29T15:06:21.385Z,5.50
2023-01-29T15:08:56.281Z,5.50
2023-01-29T15:11:37.022Z,5.50
2023-01-29T15:14:18.911Z,5.50
2023-01-29T15:17:00.448Z,5.40
2023-01-29T15:19:33.208Z,5.40
2023-01-29T15:22:10.410Z,5.50
2023-01-29T15:24:39.375Z,5.40
2023-01-29T15:27:15.042Z,5.30
2023-01-29T15:29:45.568Z,5.30
2023-01-29T15:32:30.778Z,5.30
2023-01-29T15:35:00.349Z,5.30
2023-01-29T15:37:32.772Z,5.30
2023-01-29T15:40:02.038Z,5.20
2023-01-29T15:42:44.633Z,5.20
2023-01-29T15:45:23.687Z,5.20
2023-01-29T15:47:52.678Z,5.20
2023-01-29T15:50:20.843Z,5.20
2023-01-29T15:52:52.286Z,5.20
2023-01-29T15:55:23.732Z,5.20
2023-01-29T15:57:53.401Z,5.20
2023-01-29T16:00:25.302Z,5.10
2023-01-29T16:02:53.888Z,5.20
2023-01-29T16:05:25.261Z,5.20
2023-01-29T16:07:55.417Z,5.10
2023-01-29T16:10:25.542Z,5.20
2023-01-29T16:12:55.773Z,5.20
2023-01-29T16:15:34.901Z,5.10
2023-01-29T16:18:05.930Z,5.10
2023-01-29T16:20:41.395Z,5.10
2023-01-29T16:23:22.797Z,5.10
2023-01-29T16:25:52.183Z,5.00
2023-01-29T16:28:22.150Z,5.00
2023-01-29T16:30:58.210Z,5.00
2023-01-29T16:33:35.720Z,5.10
2023-01-29T16:36:05.817Z,5.10
2023-01-29T16:38:36.168Z,5.10
2023-01-29T16:41:15.295Z,5.10
2023-01-29T16:43:50.802Z,5.00
2023-01-29T16:46:24.158Z,5.10
2023-01-29T16:48:52.861Z,5.10
2023-01-29T16:51:27.784Z,5.10
2023-01-29T16:54:01.535Z,5.10
2023-01-29T16:56:32.959Z,5.10
2023-01-29T16:59:05.090Z,5.10
2023-01-29T17:01:35.660Z,5.00
2023-01-29T17:04:09.074Z,5.10
2023-01-29T17:06:37.976Z,5.10
2023-01-29T17:09:07.892Z,5.00
2023-01-29T17:11:39.312Z,5.10
2023-01-29T17:14:11.239Z,5.10
2023-01-29T17:16:51.308Z,5.10
2023-01-29T17:19:23.567Z,5.10
2023-01-29T17:21:51.894Z,5.00
2023-01-29T17:24:20.149Z,5.00
2023-01-29T17:26:48.377Z,5.10
2023-01-29T17:29:21.754Z,5.10
2023-01-29T17:31:50.074Z,5.10
2023-01-29T17:34:18.705Z,5.00
2023-01-29T17:36:47.431Z,5.10
2023-01-29T17:39:19.423Z,5.00
2023-01-29T17:41:50.646Z,5.00
2023-01-29T17:44:20.531Z,5.00
2023-01-29T17:46:49.358Z,5.00
2023-01-29T17:49:24.572Z,5.00
2023-01-29T17:51:53.349Z,4.90
2023-01-29T17:54:22.404Z,4.90
2023-01-29T17:56:51.284Z,5.00
2023-01-29T17:59:22.596Z,5.00
2023-01-29T18:01:51.765Z,4.90
2023-01-29T18:04:20.016Z,4.80
2023-01-29T18:06:50.019Z,4.70
2023-01-29T18:09:20.412Z,4.70
2023-01-29T18:11:49.362Z,4.80
2023-01-29T18:14:17.611Z,4.80
2023-01-29T18:16:48.036Z,4.90
2023-01-29T18:19:20.688Z,4.90
2023-01-29T18:21:49.301Z,4.90
2023-01-29T18:24:17.751Z,5.00
2023-01-29T18:26:45.973Z,5.00
2023-01-29T18:29:14.322Z,5.00
2023-01-29T18:31:42.574Z,5.00
2023-01-29T18:34:12.077Z,4.90
2023-01-29T18:36:40.485Z,4.90
2023-01-29T18:39:08.609Z,4.90
2023-01-29T18:41:36.753Z,4.80
2023-01-29T18:44:04.968Z,4.80
2023-01-29T18:46:33.439Z,4.80
2023-01-29T18:49:01.694Z,4.80
2023-01-29T18:51:31.194Z,4.90
2023-01-29T18:53:59.309Z,4.90
2023-01-29T18:56:27.425Z,4.90
2023-01-29T18:58:56.492Z,4.90
2023-01-29T19:01:25.056Z,4.90
2023-01-29T19:03:53.982Z,4.90
2023-01-29T19:06:23.515Z,4.90
2023-01-29T19:08:53.123Z,4.90
2023-01-29T19:11:21.539Z,4.80
2023-01-29T19:13:50.074Z,4.80
2023-01-29T19:16:18.866Z,4.80
2023-01-29T19:18:47.028Z,4.80
2023-01-29T19:21:16.863Z,4.80
2023-01-29T19:23:45.310Z,4.80
2023-01-29T19:26:15.344Z,4.80
2023-01-29T19:28:43.637Z,4.80
2023-01-29T19:31:12.038Z,4.70
2023-01-29T19:33:40.617Z,4.80
2023-01-29T19:36:11.842Z,4.80
2023-01-29T19:38:40.144Z,4.80
2023-01-29T19:41:08.366Z,4.80
2023-01-29T19:43:40.683Z,4.80
2023-01-29T19:46:09.200Z,4.80
2023-01-29T19:48:37.658Z,4.80
2023-01-29T19:51:09.370Z,4.80
2023-01-29T19:53:38.660Z,4.80
2023-01-29T19:56:09.294Z,4.70
2023-01-29T19:58:39.249Z,4.60
2023-01-29T20:01:15.013Z,4.60
2023-01-29T20:03:45.871Z,4.60
2023-01-29T20:06:15.431Z,4.70
2023-01-29T20:08:45.403Z,4.70
2023-01-29T20:11:14.445Z,4.80
2023-01-29T20:13:44.570Z,4.80
2023-01-29T20:16:12.768Z,4.80
2023-01-29T20:18:41.024Z,4.70
2023-01-29T20:21:11.191Z,4.70
2023-01-29T20:23:40.652Z,4.60
2023-01-29T20:26:10.118Z,4.60
2023-01-29T20:28:38.478Z,4.60
2023-01-29T20:31:09.147Z,4.70
2023-01-29T20:33:39.651Z,4.80
2023-01-29T20:36:11.237Z,4.80
2023-01-29T20:38:39.608Z,4.80
2023-01-29T20:41:08.656Z,4.80
2023-01-29T20:43:37.455Z,4.80
2023-01-29T20:46:07.613Z,4.80
2023-01-29T20:48:36.010Z,4.80
2023-01-29T20:51:09.450Z,4.90
2023-01-29T20:53:38.057Z,4.90
2023-01-29T20:56:07.137Z,4.90
2023-01-29T20:58:35.544Z,4.90
2023-01-29T21:01:10.464Z,4.90
2023-01-29T21:03:39.289Z,4.80
2023-01-29T21:06:08.529Z,4.80
2023-01-29T21:08:37.315Z,4.80
2023-01-29T21:11:06.078Z,4.70
2023-01-29T21:13:34.904Z,4.70
2023-01-29T21:16:03.373Z,4.70
2023-01-29T21:18:33.614Z,4.70
2023-01-29T21:21:01.827Z,4.70
2023-01-29T21:23:30.232Z,4.80
2023-01-29T21:26:03.129Z,4.80
2023-01-29T21:28:31.494Z,4.80
2023-01-29T21:31:07.593Z,4.80
2023-01-29T21:33:37.301Z,4.80
2023-01-29T21:36:06.240Z,4.90
2023-01-29T21:38:34.449Z,4.80
2023-01-29T21:41:04.421Z,4.70
2023-01-29T21:43:31.625Z,4.70
2023-01-29T21:46:01.993Z,4.70
2023-01-29T21:48:30.312Z,4.70
2023-01-29T21:50:59.845Z,4.70
2023-01-29T21:53:28.199Z,4.70
2023-01-29T21:56:00.680Z,4.70
2023-01-29T21:58:29.029Z,4.80
2023-01-29T22:00:57.315Z,4.80
2023-01-29T22:03:47.255Z,4.80
2023-01-29T22:06:17.342Z,4.70
2023-01-29T22:08:45.690Z,4.70
2023-01-29T22:11:14.101Z,4.60
2023-01-29T22:13:42.237Z,4.70
2023-01-29T22:16:10.596Z,4.70
2023-01-29T22:18:38.761Z,4.70
2023-01-29T22:21:07.123Z,4.70
2023-01-29T22:23:36.627Z,4.60
2023-01-29T22:26:05.152Z,4.50
2023-01-29T22:28:33.319Z,4.50
2023-01-29T22:31:05.113Z,4.60
2023-01-29T22:33:33.478Z,4.70
2023-01-29T22:36:02.271Z,4.70
2023-01-29T22:38:31.091Z,4.70
2023-01-29T22:41:01.638Z,4.70
2023-01-29T22:43:30.124Z,4.70
2023-01-29T22:46:01.248Z,4.70
2023-01-29T22:48:30.566Z,4.70
2023-01-29T22:51:11.215Z,4.70
2023-01-29T22:53:40.461Z,4.70
2023-01-29T22:56:11.171Z,4.70
2023-01-29T22:58:39.414Z,4.70
2023-01-29T23:01:08.036Z,4.70
2023-01-29T23:03:36.551Z,4.70
2023-01-29T23:06:05.425Z,4.70
2023-01-29T23:08:34.139Z,4.70
2023-01-29T23:11:13.817Z,4.70
2023-01-29T23:13:44.982Z,4.70
2023-01-29T23:16:13.857Z,4.80
2023-01-29T23:18:42.305Z,4.80
2023-01-29T23:21:11.072Z,4.80
2023-01-29T23:23:39.611Z,4.80
2023-01-29T23:26:26.772Z,4.70
2023-01-29T23:28:56.259Z,4.80
2023-01-29T23:31:24.458Z,4.70
2023-01-29T23:33:52.680Z,4.70
2023-01-29T23:36:20.868Z,4.70
2023-01-29T23:38:49.095Z,4.70
2023-01-29T23:41:17.351Z,4.70
2023-01-29T23:43:45.594Z,4.70
2023-01-29T23:46:15.269Z,4.70
2023-01-29T23:48:43.377Z,4.70
2023-01-29T23:51:11.839Z,4.70
2023-01-29T23:53:39.927Z,4.70
2023-01-29T23:56:08.657Z,4.70
2023-01-29T23:58:36.937Z,4.60
